sensor_id;sensor_type;location;lat;lon;timestamp;P1;durP1;ratioP1;P2;durP2;ratioP2
31808;SDS011;18379;48.208;-1.518;2024-02-21T00:04:31;14.53;;;13.73;;
31808;SDS011;18379;48.208;-1.518;2024-02-21T00:09:32;14.33;;;13.53;;
31808;SDS011;18379;48.208;-1.518;2024-02-21T00:14:33;15.70;;;14.60;;
31808;SDS011;18379;48.208;-1.518;2024-02-21T00:19:33;15.23;;;14.30;;
31808;SDS011;18379;48.208;-1.518;2024-02-21T00:24:35;15.07;;;14.00;;
31808;SDS011;18379;48.208;-1.518;2024-02-21T00:29:35;15.57;;;14.57;;
31808;SDS011;18379;48.208;-1.518;2024-02-21T00:34:36;14.17;;;13.37;;
31808;SDS011;18379;48.208;-1.518;2024-02-21T00:39:36;15.90;;;14.70;;
31808;SDS011;18379;48.208;-1.518;2024-02-21T00:44:37;15.30;;;14.20;;
31808;SDS011;18379;48.208;-1.518;2024-02-21T00:49:38;14.93;;;13.93;;
31808;SDS011;18379;48.208;-1.518;2024-02-21T00:54:38;15.50;;;14.50;;
31808;SDS011;18379;48.208;-1.518;2024-02-21T00:59:39;15.60;;;14.47;;
31808;SDS011;18379;48.208;-1.518;2024-02-21T01:04:40;16.53;;;15.43;;
31808;SDS011;18379;48.208;-1.518;2024-02-21T01:09:40;15.53;;;14.50;;
31808;SDS011;18379;48.208;-1.518;2024-02-21T01:14:41;15.70;;;14.43;;
31808;SDS011;18379;48.208;-1.518;2024-02-21T01:19:41;15.33;;;14.23;;
31808;SDS011;18379;48.208;-1.518;2024-02-21T01:24:42;15.97;;;14.77;;
31808;SDS011;18379;48.208;-1.518;2024-02-21T01:29:43;16.53;;;15.13;;
31808;SDS011;18379;48.208;-1.518;2024-02-21T01:34:43;15.97;;;14.37;;
31808;SDS011;18379;48.208;-1.518;2024-02-21T01:39:44;16.90;;;15.40;;
31808;SDS011;18379;48.208;-1.518;2024-02-21T01:44:45;17.83;;;16.03;;
31808;SDS011;18379;48.208;-1.518;2024-02-21T01:49:45;16.53;;;15.17;;
31808;SDS011;18379;48.208;-1.518;2024-02-21T01:54:46;16.20;;;15.10;;
31808;SDS011;18379;48.208;-1.518;2024-02-21T01:59:48;16.50;;;15.30;;
31808;SDS011;18379;48.208;-1.518;2024-02-21T02:04:49;17.07;;;15.67;;
31808;SDS011;18379;48.208;-1.518;2024-02-21T02:09:49;16.50;;;15.27;;
31808;SDS011;18379;48.208;-1.518;2024-02-21T02:15:00;17.10;;;15.70;;
31808;SDS011;18379;48.208;-1.518;2024-02-21T02:20:01;16.53;;;15.17;;
31808;SDS011;18379;48.208;-1.518;2024-02-21T02:25:01;15.70;;;14.37;;
31808;SDS011;18379;48.208;-1.518;2024-02-21T02:30:03;16.47;;;15.17;;
31808;SDS011;18379;48.208;-1.518;2024-02-21T02:35:04;15.73;;;14.53;;
31808;SDS011;18379;48.208;-1.518;2024-02-21T02:40:06;17.30;;;15.60;;
31808;SDS011;18379;48.208;-1.518;2024-02-21T02:45:07;17.03;;;15.43;;
31808;SDS011;18379;48.208;-1.518;2024-02-21T02:50:09;16.33;;;15.13;;
31808;SDS011;18379;48.208;-1.518;2024-02-21T02:55:10;16.33;;;15.00;;
31808;SDS011;18379;48.208;-1.518;2024-02-21T03:00:11;16.93;;;15.47;;
31808;SDS011;18379;48.208;-1.518;2024-02-21T03:05:13;16.63;;;15.13;;
31808;SDS011;18379;48.208;-1.518;2024-02-21T03:10:18;15.33;;;14.13;;
31808;SDS011;18379;48.208;-1.518;2024-02-21T03:15:18;15.40;;;14.33;;
31808;SDS011;18379;48.208;-1.518;2024-02-21T03:20:19;17.27;;;15.87;;
31808;SDS011;18379;48.208;-1.518;2024-02-21T03:25:20;15.87;;;14.67;;
31808;SDS011;18379;48.208;-1.518;2024-02-21T03:30:21;15.50;;;14.17;;
31808;SDS011;18379;48.208;-1.518;2024-02-21T03:35:21;16.73;;;15.07;;
31808;SDS011;18379;48.208;-1.518;2024-02-21T03:40:26;15.77;;;14.47;;
31808;SDS011;18379;48.208;-1.518;2024-02-21T03:45:27;16.83;;;15.33;;
31808;SDS011;18379;48.208;-1.518;2024-02-21T03:50:27;16.00;;;14.73;;
31808;SDS011;18379;48.208;-1.518;2024-02-21T03:55:28;16.40;;;15.03;;
31808;SDS011;18379;48.208;-1.518;2024-02-21T04:00:29;16.17;;;14.77;;
31808;SDS011;18379;48.208;-1.518;2024-02-21T04:05:29;15.97;;;14.70;;
31808;SDS011;18379;48.208;-1.518;2024-02-21T04:10:30;16.87;;;15.53;;
31808;SDS011;18379;48.208;-1.518;2024-02-21T04:15:31;15.23;;;14.13;;
31808;SDS011;18379;48.208;-1.518;2024-02-21T04:20:31;16.30;;;15.03;;
31808;SDS011;18379;48.208;-1.518;2024-02-21T04:25:32;15.83;;;14.53;;
31808;SDS011;18379;48.208;-1.518;2024-02-21T04:30:33;15.60;;;14.50;;
31808;SDS011;18379;48.208;-1.518;2024-02-21T04:35:35;16.43;;;14.90;;
31808;SDS011;18379;48.208;-1.518;2024-02-21T04:40:36;15.50;;;14.40;;
31808;SDS011;18379;48.208;-1.518;2024-02-21T04:45:37;15.30;;;14.20;;
31808;SDS011;18379;48.208;-1.518;2024-02-21T04:50:38;16.03;;;14.43;;
31808;SDS011;18379;48.208;-1.518;2024-02-21T04:55:38;15.40;;;14.30;;
31808;SDS011;18379;48.208;-1.518;2024-02-21T05:11:16;15.63;;;14.30;;
31808;SDS011;18379;48.208;-1.518;2024-02-21T05:16:17;15.63;;;14.20;;
31808;SDS011;18379;48.208;-1.518;2024-02-21T05:21:19;15.83;;;14.70;;
31808;SDS011;18379;48.208;-1.518;2024-02-21T05:26:20;15.80;;;14.60;;
31808;SDS011;18379;48.208;-1.518;2024-02-21T05:31:22;15.60;;;14.37;;
31808;SDS011;18379;48.208;-1.518;2024-02-21T05:36:23;15.00;;;14.00;;
31808;SDS011;18379;48.208;-1.518;2024-02-21T05:41:23;15.20;;;14.20;;
31808;SDS011;18379;48.208;-1.518;2024-02-21T05:46:24;15.13;;;14.17;;
31808;SDS011;18379;48.208;-1.518;2024-02-21T05:51:24;15.60;;;14.40;;
31808;SDS011;18379;48.208;-1.518;2024-02-21T05:56:25;14.60;;;13.57;;
31808;SDS011;18379;48.208;-1.518;2024-02-21T06:01:27;15.50;;;14.20;;
31808;SDS011;18379;48.208;-1.518;2024-02-21T06:06:28;15.67;;;14.40;;
31808;SDS011;18379;48.208;-1.518;2024-02-21T06:11:28;16.23;;;14.90;;
31808;SDS011;18379;48.208;-1.518;2024-02-21T06:16:29;16.97;;;15.53;;
31808;SDS011;18379;48.208;-1.518;2024-02-21T06:21:30;15.97;;;14.60;;
31808;SDS011;18379;48.208;-1.518;2024-02-21T06:26:30;15.63;;;14.30;;
31808;SDS011;18379;48.208;-1.518;2024-02-21T06:31:31;16.13;;;14.93;;
31808;SDS011;18379;48.208;-1.518;2024-02-21T06:36:32;18.47;;;16.70;;
31808;SDS011;18379;48.208;-1.518;2024-02-21T06:41:32;18.00;;;16.53;;
31808;SDS011;18379;48.208;-1.518;2024-02-21T06:46:34;15.97;;;14.70;;
31808;SDS011;18379;48.208;-1.518;2024-02-21T06:51:35;15.93;;;14.80;;
31808;SDS011;18379;48.208;-1.518;2024-02-21T06:56:37;15.43;;;14.40;;
31808;SDS011;18379;48.208;-1.518;2024-02-21T07:01:39;16.00;;;14.53;;
31808;SDS011;18379;48.208;-1.518;2024-02-21T07:06:40;16.53;;;14.80;;
31808;SDS011;18379;48.208;-1.518;2024-02-21T07:11:41;17.07;;;15.43;;
31808;SDS011;18379;48.208;-1.518;2024-02-21T07:16:41;16.50;;;15.20;;
31808;SDS011;18379;48.208;-1.518;2024-02-21T07:21:42;16.70;;;15.37;;
31808;SDS011;18379;48.208;-1.518;2024-02-21T07:26:43;16.63;;;15.10;;
31808;SDS011;18379;48.208;-1.518;2024-02-21T07:31:44;17.03;;;15.50;;
31808;SDS011;18379;48.208;-1.518;2024-02-21T07:36:44;17.43;;;15.87;;
31808;SDS011;18379;48.208;-1.518;2024-02-21T07:41:45;18.60;;;16.80;;
31808;SDS011;18379;48.208;-1.518;2024-02-21T07:46:48;18.40;;;16.63;;
31808;SDS011;18379;48.208;-1.518;2024-02-21T07:51:48;19.70;;;17.70;;
31808;SDS011;18379;48.208;-1.518;2024-02-21T07:56:49;19.20;;;17.30;;
31808;SDS011;18379;48.208;-1.518;2024-02-21T08:01:50;21.33;;;17.87;;
31808;SDS011;18379;48.208;-1.518;2024-02-21T08:06:53;18.43;;;16.70;;
31808;SDS011;18379;48.208;-1.518;2024-02-21T08:11:55;18.33;;;16.63;;
31808;SDS011;18379;48.208;-1.518;2024-02-21T08:16:56;19.60;;;17.17;;
31808;SDS011;18379;48.208;-1.518;2024-02-21T08:21:56;18.67;;;16.87;;
31808;SDS011;18379;48.208;-1.518;2024-02-21T08:26:57;19.67;;;17.67;;
31808;SDS011;18379;48.208;-1.518;2024-02-21T08:31:58;20.53;;;18.30;;
31808;SDS011;18379;48.208;-1.518;2024-02-21T08:36:58;23.60;;;18.77;;
31808;SDS011;18379;48.208;-1.518;2024-02-21T08:41:59;19.20;;;17.37;;
31808;SDS011;18379;48.208;-1.518;2024-02-21T08:47:00;19.80;;;17.73;;
31808;SDS011;18379;48.208;-1.518;2024-02-21T08:52:04;23.03;;;18.47;;
31808;SDS011;18379;48.208;-1.518;2024-02-21T08:57:05;20.77;;;17.73;;
31808;SDS011;18379;48.208;-1.518;2024-02-21T09:02:05;21.00;;;18.80;;
31808;SDS011;18379;48.208;-1.518;2024-02-21T09:07:07;20.33;;;18.20;;
31808;SDS011;18379;48.208;-1.518;2024-02-21T09:12:08;21.63;;;19.00;;
31808;SDS011;18379;48.208;-1.518;2024-02-21T09:17:08;21.57;;;19.30;;
31808;SDS011;18379;48.208;-1.518;2024-02-21T09:22:09;26.63;;;19.17;;
31808;SDS011;18379;48.208;-1.518;2024-02-21T09:27:10;22.43;;;19.23;;
31808;SDS011;18379;48.208;-1.518;2024-02-21T09:32:11;21.13;;;18.87;;
31808;SDS011;18379;48.208;-1.518;2024-02-21T09:37:12;20.63;;;18.13;;
31808;SDS011;18379;48.208;-1.518;2024-02-21T09:42:13;22.40;;;19.40;;
31808;SDS011;18379;48.208;-1.518;2024-02-21T09:52:22;25.30;;;19.33;;
31808;SDS011;18379;48.208;-1.518;2024-02-21T09:57:24;21.67;;;19.13;;
31808;SDS011;18379;48.208;-1.518;2024-02-21T10:02:25;26.17;;;19.77;;
31808;SDS011;18379;48.208;-1.518;2024-02-21T10:07:25;21.30;;;18.80;;
31808;SDS011;18379;48.208;-1.518;2024-02-21T10:12:26;24.33;;;19.53;;
31808;SDS011;18379;48.208;-1.518;2024-02-21T10:17:27;21.80;;;19.57;;
31808;SDS011;18379;48.208;-1.518;2024-02-21T10:22:27;23.13;;;19.33;;
31808;SDS011;18379;48.208;-1.518;2024-02-21T10:27:31;23.23;;;18.97;;
31808;SDS011;18379;48.208;-1.518;2024-02-21T10:32:32;21.47;;;19.13;;
31808;SDS011;18379;48.208;-1.518;2024-02-21T10:37:33;20.57;;;18.53;;
31808;SDS011;18379;48.208;-1.518;2024-02-21T10:42:33;21.30;;;19.30;;
31808;SDS011;18379;48.208;-1.518;2024-02-21T10:47:37;25.27;;;19.47;;
31808;SDS011;18379;48.208;-1.518;2024-02-21T10:52:48;23.00;;;19.83;;
31808;SDS011;18379;48.208;-1.518;2024-02-21T10:57:57;20.53;;;18.47;;
31808;SDS011;18379;48.208;-1.518;2024-02-21T11:02:58;20.83;;;19.00;;
31808;SDS011;18379;48.208;-1.518;2024-02-21T11:08:05;20.60;;;18.70;;
31808;SDS011;18379;48.208;-1.518;2024-02-21T11:13:09;19.40;;;17.47;;
31808;SDS011;18379;48.208;-1.518;2024-02-21T11:18:11;20.80;;;18.57;;
31808;SDS011;18379;48.208;-1.518;2024-02-21T11:23:12;20.57;;;18.53;;
31808;SDS011;18379;48.208;-1.518;2024-02-21T11:28:12;19.13;;;17.43;;
31808;SDS011;18379;48.208;-1.518;2024-02-21T11:33:13;19.33;;;17.63;;
31808;SDS011;18379;48.208;-1.518;2024-02-21T11:38:13;19.10;;;17.43;;
31808;SDS011;18379;48.208;-1.518;2024-02-21T11:43:17;19.40;;;17.70;;
31808;SDS011;18379;48.208;-1.518;2024-02-21T11:48:18;19.57;;;17.97;;
31808;SDS011;18379;48.208;-1.518;2024-02-21T11:53:20;19.13;;;17.33;;
31808;SDS011;18379;48.208;-1.518;2024-02-21T11:58:21;18.60;;;17.00;;
31808;SDS011;18379;48.208;-1.518;2024-02-21T12:03:21;19.80;;;17.87;;
31808;SDS011;18379;48.208;-1.518;2024-02-21T12:08:22;17.60;;;16.20;;
31808;SDS011;18379;48.208;-1.518;2024-02-21T12:13:23;19.33;;;17.43;;
31808;SDS011;18379;48.208;-1.518;2024-02-21T12:18:24;18.40;;;16.80;;
31808;SDS011;18379;48.208;-1.518;2024-02-21T12:23:26;18.73;;;16.97;;
31808;SDS011;18379;48.208;-1.518;2024-02-21T12:28:27;18.97;;;17.37;;
31808;SDS011;18379;48.208;-1.518;2024-02-21T12:33:28;17.40;;;16.10;;
31808;SDS011;18379;48.208;-1.518;2024-02-21T12:38:28;17.67;;;16.20;;
31808;SDS011;18379;48.208;-1.518;2024-02-21T12:43:29;18.23;;;15.80;;
31808;SDS011;18379;48.208;-1.518;2024-02-21T12:48:30;16.70;;;15.50;;
31808;SDS011;18379;48.208;-1.518;2024-02-21T12:53:30;18.53;;;16.80;;
31808;SDS011;18379;48.208;-1.518;2024-02-21T12:58:32;17.80;;;16.30;;
31808;SDS011;18379;48.208;-1.518;2024-02-21T13:03:32;17.47;;;16.33;;
31808;SDS011;18379;48.208;-1.518;2024-02-21T13:08:33;17.87;;;16.13;;
31808;SDS011;18379;48.208;-1.518;2024-02-21T13:13:35;18.00;;;16.43;;
31808;SDS011;18379;48.208;-1.518;2024-02-21T13:18:35;17.73;;;15.87;;
31808;SDS011;18379;48.208;-1.518;2024-02-21T13:23:39;18.00;;;16.23;;
31808;SDS011;18379;48.208;-1.518;2024-02-21T13:28:40;17.40;;;15.50;;
31808;SDS011;18379;48.208;-1.518;2024-02-21T13:33:41;17.53;;;16.27;;
31808;SDS011;18379;48.208;-1.518;2024-02-21T13:38:41;18.40;;;16.50;;
31808;SDS011;18379;48.208;-1.518;2024-02-21T13:43:42;18.77;;;16.83;;
31808;SDS011;18379;48.208;-1.518;2024-02-21T13:48:43;17.57;;;16.23;;
31808;SDS011;18379;48.208;-1.518;2024-02-21T13:53:43;18.83;;;16.90;;
31808;SDS011;18379;48.208;-1.518;2024-02-21T13:58:44;18.03;;;16.03;;
31808;SDS011;18379;48.208;-1.518;2024-02-21T14:03:45;18.17;;;16.37;;
31808;SDS011;18379;48.208;-1.518;2024-02-21T14:08:45;18.90;;;16.73;;
31808;SDS011;18379;48.208;-1.518;2024-02-21T14:13:46;18.27;;;16.57;;
31808;SDS011;18379;48.208;-1.518;2024-02-21T14:18:47;21.50;;;17.50;;
31808;SDS011;18379;48.208;-1.518;2024-02-21T14:23:48;25.93;;;19.03;;
31808;SDS011;18379;48.208;-1.518;2024-02-21T14:28:49;23.70;;;18.03;;
31808;SDS011;18379;48.208;-1.518;2024-02-21T14:33:49;18.70;;;16.87;;
31808;SDS011;18379;48.208;-1.518;2024-02-21T14:38:50;18.57;;;16.90;;
31808;SDS011;18379;48.208;-1.518;2024-02-21T14:43:51;18.93;;;16.80;;
31808;SDS011;18379;48.208;-1.518;2024-02-21T14:48:52;18.13;;;16.50;;
31808;SDS011;18379;48.208;-1.518;2024-02-21T14:53:53;18.57;;;16.63;;
31808;SDS011;18379;48.208;-1.518;2024-02-21T14:58:55;19.93;;;17.83;;
31808;SDS011;18379;48.208;-1.518;2024-02-21T15:03:56;19.73;;;17.70;;
31808;SDS011;18379;48.208;-1.518;2024-02-21T15:08:57;18.77;;;17.00;;
31808;SDS011;18379;48.208;-1.518;2024-02-21T15:13:58;19.87;;;16.67;;
31808;SDS011;18379;48.208;-1.518;2024-02-21T15:18:59;18.60;;;16.73;;
31808;SDS011;18379;48.208;-1.518;2024-02-21T15:24:00;17.67;;;16.20;;
31808;SDS011;18379;48.208;-1.518;2024-02-21T15:29:01;19.80;;;18.00;;
31808;SDS011;18379;48.208;-1.518;2024-02-21T15:34:02;19.10;;;17.67;;
31808;SDS011;18379;48.208;-1.518;2024-02-21T15:39:03;20.40;;;18.60;;
31808;SDS011;18379;48.208;-1.518;2024-02-21T15:44:04;20.43;;;18.63;;
31808;SDS011;18379;48.208;-1.518;2024-02-21T15:49:05;18.00;;;16.67;;
31808;SDS011;18379;48.208;-1.518;2024-02-21T15:54:06;20.37;;;18.67;;
31808;SDS011;18379;48.208;-1.518;2024-02-21T15:59:08;18.97;;;17.20;;
31808;SDS011;18379;48.208;-1.518;2024-02-21T16:04:10;18.13;;;16.70;;
31808;SDS011;18379;48.208;-1.518;2024-02-21T16:09:11;17.10;;;15.90;;
31808;SDS011;18379;48.208;-1.518;2024-02-21T16:14:12;17.23;;;16.23;;
31808;SDS011;18379;48.208;-1.518;2024-02-21T16:19:13;18.13;;;16.87;;
31808;SDS011;18379;48.208;-1.518;2024-02-21T16:24:14;18.40;;;17.10;;
31808;SDS011;18379;48.208;-1.518;2024-02-21T16:29:15;18.00;;;16.67;;
31808;SDS011;18379;48.208;-1.518;2024-02-21T16:34:16;16.87;;;15.93;;
31808;SDS011;18379;48.208;-1.518;2024-02-21T16:39:16;17.67;;;16.47;;
31808;SDS011;18379;48.208;-1.518;2024-02-21T16:44:17;17.10;;;16.20;;
31808;SDS011;18379;48.208;-1.518;2024-02-21T16:49:18;17.50;;;16.30;;
31808;SDS011;18379;48.208;-1.518;2024-02-21T16:54:22;17.83;;;16.43;;
31808;SDS011;18379;48.208;-1.518;2024-02-21T16:59:26;17.53;;;16.33;;
31808;SDS011;18379;48.208;-1.518;2024-02-21T17:04:27;16.90;;;15.90;;
31808;SDS011;18379;48.208;-1.518;2024-02-21T17:09:28;17.10;;;16.00;;
31808;SDS011;18379;48.208;-1.518;2024-02-21T17:14:29;17.63;;;16.53;;
31808;SDS011;18379;48.208;-1.518;2024-02-21T17:19:29;21.63;;;19.73;;
31808;SDS011;18379;48.208;-1.518;2024-02-21T17:24:31;23.77;;;21.30;;
31808;SDS011;18379;48.208;-1.518;2024-02-21T17:29:32;25.30;;;22.80;;
31808;SDS011;18379;48.208;-1.518;2024-02-21T17:34:32;22.50;;;20.40;;
31808;SDS011;18379;48.208;-1.518;2024-02-21T17:39:33;23.60;;;21.47;;
31808;SDS011;18379;48.208;-1.518;2024-02-21T17:44:34;21.10;;;19.23;;
31808;SDS011;18379;48.208;-1.518;2024-02-21T17:49:36;21.70;;;19.90;;
31808;SDS011;18379;48.208;-1.518;2024-02-21T17:54:37;23.37;;;21.37;;
31808;SDS011;18379;48.208;-1.518;2024-02-21T17:59:44;23.53;;;21.63;;
31808;SDS011;18379;48.208;-1.518;2024-02-21T18:04:45;23.97;;;22.03;;
31808;SDS011;18379;48.208;-1.518;2024-02-21T18:09:48;20.80;;;19.20;;
31808;SDS011;18379;48.208;-1.518;2024-02-21T18:14:50;20.43;;;19.10;;
31808;SDS011;18379;48.208;-1.518;2024-02-21T18:19:51;19.47;;;18.00;;
31808;SDS011;18379;48.208;-1.518;2024-02-21T18:24:51;21.23;;;19.63;;
31808;SDS011;18379;48.208;-1.518;2024-02-21T18:29:52;24.00;;;21.70;;
31808;SDS011;18379;48.208;-1.518;2024-02-21T18:34:53;20.70;;;19.17;;
31808;SDS011;18379;48.208;-1.518;2024-02-21T18:39:54;22.17;;;20.10;;
31808;SDS011;18379;48.208;-1.518;2024-02-21T18:44:55;23.47;;;21.27;;
31808;SDS011;18379;48.208;-1.518;2024-02-21T18:49:56;19.73;;;18.53;;
31808;SDS011;18379;48.208;-1.518;2024-02-21T18:54:56;18.33;;;17.20;;
31808;SDS011;18379;48.208;-1.518;2024-02-21T18:59:57;18.70;;;17.50;;
31808;SDS011;18379;48.208;-1.518;2024-02-21T19:04:58;19.57;;;18.27;;
31808;SDS011;18379;48.208;-1.518;2024-02-21T19:09:59;21.63;;;19.93;;
31808;SDS011;18379;48.208;-1.518;2024-02-21T19:15:00;23.97;;;21.57;;
31808;SDS011;18379;48.208;-1.518;2024-02-21T19:20:01;20.03;;;18.43;;
31808;SDS011;18379;48.208;-1.518;2024-02-21T19:25:01;25.10;;;22.47;;
31808;SDS011;18379;48.208;-1.518;2024-02-21T19:30:07;21.53;;;19.50;;
31808;SDS011;18379;48.208;-1.518;2024-02-21T19:35:10;18.23;;;17.03;;
31808;SDS011;18379;48.208;-1.518;2024-02-21T19:40:11;20.47;;;18.80;;
31808;SDS011;18379;48.208;-1.518;2024-02-21T19:45:13;19.73;;;18.23;;
31808;SDS011;18379;48.208;-1.518;2024-02-21T19:50:14;19.90;;;18.50;;
31808;SDS011;18379;48.208;-1.518;2024-02-21T19:55:21;18.20;;;17.00;;
31808;SDS011;18379;48.208;-1.518;2024-02-21T20:00:21;18.83;;;17.63;;
31808;SDS011;18379;48.208;-1.518;2024-02-21T20:05:22;17.37;;;16.37;;
31808;SDS011;18379;48.208;-1.518;2024-02-21T20:10:24;17.90;;;16.73;;
31808;SDS011;18379;48.208;-1.518;2024-02-21T20:15:25;18.33;;;17.23;;
31808;SDS011;18379;48.208;-1.518;2024-02-21T20:20:26;18.30;;;17.30;;
31808;SDS011;18379;48.208;-1.518;2024-02-21T20:25:33;18.20;;;17.10;;
31808;SDS011;18379;48.208;-1.518;2024-02-21T20:30:33;17.60;;;16.40;;
31808;SDS011;18379;48.208;-1.518;2024-02-21T20:35:34;17.37;;;16.27;;
31808;SDS011;18379;48.208;-1.518;2024-02-21T20:40:35;17.53;;;16.63;;
31808;SDS011;18379;48.208;-1.518;2024-02-21T20:45:36;18.67;;;17.37;;
31808;SDS011;18379;48.208;-1.518;2024-02-21T20:50:37;17.60;;;16.70;;
31808;SDS011;18379;48.208;-1.518;2024-02-21T20:55:37;17.57;;;16.67;;
31808;SDS011;18379;48.208;-1.518;2024-02-21T21:00:39;17.70;;;16.80;;
31808;SDS011;18379;48.208;-1.518;2024-02-21T21:05:40;19.53;;;18.23;;
31808;SDS011;18379;48.208;-1.518;2024-02-21T21:10:43;18.17;;;17.07;;
31808;SDS011;18379;48.208;-1.518;2024-02-21T21:15:44;18.33;;;17.30;;
31808;SDS011;18379;48.208;-1.518;2024-02-21T21:20:44;18.73;;;17.53;;
31808;SDS011;18379;48.208;-1.518;2024-02-21T21:25:45;18.10;;;17.00;;
31808;SDS011;18379;48.208;-1.518;2024-02-21T21:30:46;19.90;;;18.40;;
31808;SDS011;18379;48.208;-1.518;2024-02-21T21:35:46;16.77;;;15.87;;
31808;SDS011;18379;48.208;-1.518;2024-02-21T21:40:51;16.43;;;15.63;;
31808;SDS011;18379;48.208;-1.518;2024-02-21T21:45:52;18.30;;;17.20;;
31808;SDS011;18379;48.208;-1.518;2024-02-21T21:50:53;17.83;;;16.73;;
31808;SDS011;18379;48.208;-1.518;2024-02-21T21:55:53;17.03;;;16.03;;
31808;SDS011;18379;48.208;-1.518;2024-02-21T22:00:54;16.50;;;15.60;;
31808;SDS011;18379;48.208;-1.518;2024-02-21T22:05:55;17.77;;;16.57;;
31808;SDS011;18379;48.208;-1.518;2024-02-21T22:10:55;17.73;;;16.53;;
31808;SDS011;18379;48.208;-1.518;2024-02-21T22:15:56;18.50;;;17.20;;
31808;SDS011;18379;48.208;-1.518;2024-02-21T22:20:57;19.33;;;18.07;;
31808;SDS011;18379;48.208;-1.518;2024-02-21T22:25:58;17.37;;;16.47;;
31808;SDS011;18379;48.208;-1.518;2024-02-21T22:30:59;17.10;;;16.10;;
31808;SDS011;18379;48.208;-1.518;2024-02-21T22:36:00;17.10;;;16.10;;
31808;SDS011;18379;48.208;-1.518;2024-02-21T22:41:00;18.20;;;17.10;;
31808;SDS011;18379;48.208;-1.518;2024-02-21T22:46:01;17.00;;;15.97;;
31808;SDS011;18379;48.208;-1.518;2024-02-21T22:51:02;16.90;;;16.00;;
31808;SDS011;18379;48.208;-1.518;2024-02-21T22:56:03;17.90;;;16.83;;
31808;SDS011;18379;48.208;-1.518;2024-02-21T23:01:08;16.87;;;15.97;;
31808;SDS011;18379;48.208;-1.518;2024-02-21T23:06:10;17.10;;;16.20;;
31808;SDS011;18379;48.208;-1.518;2024-02-21T23:11:10;16.17;;;15.37;;
31808;SDS011;18379;48.208;-1.518;2024-02-21T23:16:11;15.93;;;15.23;;
31808;SDS011;18379;48.208;-1.518;2024-02-21T23:21:11;16.23;;;15.43;;
31808;SDS011;18379;48.208;-1.518;2024-02-21T23:26:12;16.57;;;15.67;;
31808;SDS011;18379;48.208;-1.518;2024-02-21T23:31:13;15.80;;;15.00;;
31808;SDS011;18379;48.208;-1.518;2024-02-21T23:36:13;16.80;;;15.90;;
31808;SDS011;18379;48.208;-1.518;2024-02-21T23:41:14;16.67;;;15.87;;
31808;SDS011;18379;48.208;-1.518;2024-02-21T23:46:18;16.33;;;15.53;;
31808;SDS011;18379;48.208;-1.518;2024-02-21T23:51:19;17.03;;;16.13;;
31808;SDS011;18379;48.208;-1.518;2024-02-21T23:56:20;16.20;;;15.40;;
